Time,TemperatureF,DewpointF,PressureIn,WindDirection,WindDirectionDegrees,WindSpeedMPH,WindSpeedGustMPH,Humidity,HourlyPrecipIn,Conditions,Clouds,dailyrainin,SoftwareType,DateUTC
2013-11-10 00:00:00,44.2,30.4,29.98,SW,222,9.0,9.0,58,0.00,,SCT033,0.00,VWS V15.00,2013-11-10 05:00:00,
2013-11-10 00:01:00,45.7,33.8,29.96,SW,222,9.0,9.0,63,0.00,,OVC060,0.00,VWS V14.01,2013-11-10 05:01:00,
2013-11-10 00:02:00,45.7,33.8,29.96,SW,222,9.0,9.0,63,0.00,,OVC060,0.00,VWS V14.01,2013-11-10 05:02:00,
2013-11-10 00:03:00,45.6,33.8,29.96,SW,222,9.0,9.0,63,0.00,,OVC060,0.00,VWS V14.01,2013-11-10 05:03:00,
2013-11-10 00:04:00,45.6,34.1,29.96,SW,222,9.0,9.0,64,0.00,,OVC060,0.00,VWS V14.01,2013-11-10 05:04:00,
2013-11-10 00:05:00,45.6,34.1,29.96,SW,222,9.0,9.0,64,0.00,,OVC060,0.00,VWS V14.01,2013-11-10 05:05:00,
2013-11-10 00:10:00,45.4,34.0,29.96,SW,222,9.0,9.0,64,0.00,,OVC060,0.00,VWS V14.01,2013-11-10 05:10:00,
2013-11-10 00:15:00,45.3,33.9,29.97,SW,222,9.0,9.0,64,0.00,,OVC060,0.00,VWS V14.01,2013-11-10 05:15:00,
2013-11-10 00:20:00,45.1,33.3,29.97,SW,222,9.0,9.0,63,0.00,,OVC060,0.00,VWS V14.01,2013-11-10 05:20:00,
2013-11-10 00:25:00,44.9,32.7,29.97,SW,222,9.0,9.0,62,0.00,,OVC060,0.00,VWS V14.01,2013-11-10 05:25:00,
2013-11-10 00:30:00,44.7,31.7,29.97,SW,222,9.0,9.0,60,0.00,,OVC060,0.00,VWS V14.01,2013-11-10 05:30:00,
2013-11-10 00:35:00,44.7,31.7,29.97,SW,222,9.0,9.0,60,0.00,,OVC060,0.00,VWS V14.01,2013-11-10 05:35:00,
2013-11-10 00:40:00,44.5,31.1,29.98,SW,222,9.0,9.0,59,0.00,,OVC060,0.00,VWS V14.01,2013-11-10 05:40:00,
2013-11-10 00:45:00,44.4,31.0,29.98,SW,222,9.0,9.0,59,0.00,,OVC060,0.00,VWS V14.01,2013-11-10 05:45:00,
2013-11-10 00:51:00,44.3,30.9,29.98,SW,222,9.0,9.0,59,0.00,,OVC060,0.00,VWS V14.01,2013-11-10 05:51:00,
2013-11-10 00:56:00,44.2,30.4,29.98,SW,222,9.0,9.0,58,0.00,,OVC060,0.00,VWS V14.01,2013-11-10 05:56:00,
2013-11-10 01:00:00,43.1,29.8,29.98,SW,222,9.0,9.0,59,0.00,,SCT033,0.00,VWS V15.00,2013-11-10 06:00:00,
2013-11-10 01:01:00,44.2,30.4,29.98,SW,222,9.0,9.0,58,0.00,,OVC070,0.00,VWS V14.01,2013-11-10 06:01:00,
2013-11-10 01:06:00,44.2,30.4,29.98,SW,222,9.0,9.0,58,0.00,,OVC070,0.00,VWS V14.01,2013-11-10 06:06:00,
2013-11-10 01:11:00,44.2,30.0,29.98,SW,222,9.0,9.0,57,0.00,,OVC070,0.00,VWS V14.01,2013-11-10 06:11:00,
2013-11-10 01:15:00,42.9,29.6,29.99,SW,222,9.0,9.0,59,0.00,,SCT033,0.00,VWS V15.00,2013-11-10 06:15:00,
2013-11-10 01:16:00,44.2,30.4,29.98,SW,222,9.0,9.0,58,0.00,,OVC070,0.00,VWS V14.01,2013-11-10 06:16:00,
2013-11-10 01:21:00,44.1,30.3,29.99,SW,222,9.0,9.0,58,0.00,,OVC070,0.00,VWS V14.01,2013-11-10 06:21:00,
2013-11-10 01:26:00,44.0,30.6,29.98,SW,222,9.0,9.0,59,0.00,,OVC070,0.00,VWS V14.01,2013-11-10 06:26:00,
2013-11-10 01:30:00,42.8,29.9,29.99,SW,222,9.0,9.0,60,0.00,,SCT033,0.00,VWS V15.00,2013-11-10 06:30:00,
2013-11-10 01:31:00,43.9,30.5,29.99,SW,222,9.0,9.0,59,0.00,,OVC070,0.00,VWS V14.01,2013-11-10 06:31:00,
2013-11-10 01:36:00,43.7,29.9,29.99,SW,222,9.0,9.0,58,0.00,,OVC070,0.00,VWS V14.01,2013-11-10 06:36:00,
2013-11-10 01:41:00,43.6,29.8,29.99,SW,222,9.0,9.0,58,0.00,,OVC070,0.00,VWS V14.01,2013-11-10 06:41:00,
2013-11-10 01:45:00,42.9,30.4,30.00,SW,222,9.0,9.0,61,0.00,,SCT033,0.00,VWS V15.00,2013-11-10 06:45:00,
2013-11-10 01:46:00,43.4,29.6,29.99,SW,222,9.0,9.0,58,0.00,,OVC070,0.00,VWS V14.01,2013-11-10 06:46:00,
2013-11-10 01:51:00,43.3,29.5,29.99,SW,222,9.0,9.0,58,0.00,,OVC070,0.00,VWS V14.01,2013-11-10 06:51:00,
2013-11-10 01:56:00,43.2,29.9,29.99,SW,222,9.0,9.0,59,0.00,,OVC070,0.00,VWS V14.01,2013-11-10 06:56:00,
2013-11-10 02:00:00,42.8,30.7,30.00,SW,222,9.0,9.0,62,0.00,,SCT033,0.00,VWS V15.00,2013-11-10 07:00:00,
2013-11-10 02:02:00,43.1,29.8,29.99,SW,222,9.0,9.0,59,0.00,,OVC055,0.00,VWS V14.01,2013-11-10 07:02:00,
2013-11-10 02:07:00,43.0,29.7,29.99,SW,222,9.0,9.0,59,0.00,,OVC055,0.00,VWS V14.01,2013-11-10 07:07:00,
2013-11-10 02:12:00,42.9,29.6,29.99,SW,222,9.0,9.0,59,0.00,,OVC055,0.00,VWS V14.01,2013-11-10 07:12:00,
2013-11-10 02:15:00,42.8,31.1,30.01,SW,222,9.0,9.0,63,0.00,,SCT033,0.00,VWS V15.00,2013-11-10 07:15:00,
2013-11-10 02:17:00,43.0,29.7,29.99,SW,222,9.0,9.0,59,0.00,,OVC055,0.00,VWS V14.01,2013-11-10 07:17:00,
2013-11-10 02:22:00,42.9,29.6,29.99,SW,222,9.0,9.0,59,0.00,,OVC055,0.00,VWS V14.01,2013-11-10 07:22:00,
2013-11-10 02:27:00,42.9,30.0,29.99,SW,222,9.0,9.0,60,0.00,,OVC055,0.00,VWS V14.01,2013-11-10 07:27:00,
2013-11-10 02:30:00,42.7,31.4,30.02,SW,222,9.0,9.0,64,0.00,,SCT033,0.00,VWS V15.00,2013-11-10 07:30:00,
2013-11-10 02:32:00,42.9,30.0,29.99,SW,222,9.0,9.0,60,0.00,,OVC055,0.00,VWS V14.01,2013-11-10 07:32:00,
2013-11-10 02:37:00,42.9,30.4,30.00,SW,222,9.0,9.0,61,0.00,,OVC055,0.00,VWS V14.01,2013-11-10 07:37:00,
2013-11-10 02:42:00,42.9,30.4,30.00,SW,222,9.0,9.0,61,0.00,,OVC055,0.00,VWS V14.01,2013-11-10 07:42:00,
2013-11-10 02:45:00,42.6,30.9,30.02,SW,222,9.0,9.0,63,0.00,,SCT033,0.00,VWS V15.00,2013-11-10 07:45:00,
2013-11-10 02:47:00,42.9,30.4,30.00,SW,222,9.0,9.0,61,0.00,,OVC055,0.00,VWS V14.01,2013-11-10 07:47:00,
2013-11-10 02:52:00,42.9,30.8,30.01,SW,222,9.0,9.0,62,0.00,,OVC055,0.00,VWS V14.01,2013-11-10 07:52:00,
2013-11-10 02:57:00,42.9,30.8,30.01,SW,222,9.0,9.0,62,0.00,,OVC055,0.00,VWS V14.01,2013-11-10 07:57:00,
2013-11-10 03:00:00,42.5,31.2,30.03,SW,222,9.0,9.0,64,0.00,,SCT033,0.00,VWS V15.00,2013-11-10 08:00:00,
2013-11-10 03:02:00,42.8,30.7,30.01,SW,222,9.0,9.0,62,0.00,,OVC050,0.00,VWS V14.01,2013-11-10 08:02:00,
2013-11-10 03:07:00,42.8,31.1,30.01,SW,222,9.0,9.0,63,0.00,,OVC050,0.00,VWS V14.01,2013-11-10 08:07:00,
2013-11-10 03:12:00,42.8,31.1,30.01,SW,222,9.0,9.0,63,0.00,,OVC050,0.00,VWS V14.01,2013-11-10 08:12:00,
2013-11-10 03:15:00,42.5,31.6,30.03,SW,222,9.0,9.0,65,0.00,,SCT033,0.00,VWS V15.00,2013-11-10 08:15:00,
2013-11-10 03:17:00,42.7,31.0,30.01,SW,222,9.0,9.0,63,0.00,,OVC050,0.00,VWS V14.01,2013-11-10 08:17:00,
2013-11-10 03:23:00,42.7,31.4,30.01,SW,222,9.0,9.0,64,0.00,,OVC050,0.00,VWS V14.01,2013-11-10 08:23:00,
2013-11-10 03:28:00,42.7,31.4,30.02,SW,222,9.0,9.0,64,0.00,,OVC050,0.00,VWS V14.01,2013-11-10 08:28:00,
2013-11-10 03:30:00,42.5,32.0,30.03,SW,222,9.0,9.0,66,0.00,,SCT033,0.00,VWS V15.00,2013-11-10 08:30:00,
2013-11-10 03:33:00,42.7,31.0,30.02,SW,222,9.0,9.0,63,0.00,,OVC050,0.00,VWS V14.01,2013-11-10 08:33:00,
2013-11-10 03:38:00,42.6,30.9,30.02,SW,222,9.0,9.0,63,0.00,,OVC050,0.00,VWS V14.01,2013-11-10 08:38:00,
2013-11-10 03:43:00,42.6,30.9,30.02,SW,222,9.0,9.0,63,0.00,,OVC050,0.00,VWS V14.01,2013-11-10 08:43:00,
2013-11-10 03:45:00,42.4,31.9,30.05,SW,222,9.0,9.0,66,0.00,,SCT033,0.00,VWS V15.00,2013-11-10 08:45:00,
2013-11-10 03:48:00,42.6,31.3,30.02,SW,222,9.0,9.0,64,0.00,,OVC050,0.00,VWS V14.01,2013-11-10 08:48:00,
2013-11-10 03:53:00,42.5,31.2,30.02,SW,222,9.0,9.0,64,0.00,,OVC050,0.00,VWS V14.01,2013-11-10 08:53:00,
2013-11-10 03:58:00,42.5,31.2,30.03,SW,222,9.0,9.0,64,0.00,,OVC050,0.00,VWS V14.01,2013-11-10 08:58:00,
2013-11-10 04:00:00,42.3,31.8,30.05,SW,222,9.0,9.0,66,0.00,,SCT033,0.00,VWS V15.00,2013-11-10 09:00:00,
2013-11-10 04:03:00,42.5,31.2,30.03,SW,222,9.0,9.0,64,0.00,,OVC050,0.00,VWS V14.01,2013-11-10 09:03:00,
2013-11-10 04:08:00,42.5,31.6,30.03,SW,222,9.0,9.0,65,0.00,,OVC050,0.00,VWS V14.01,2013-11-10 09:08:00,
2013-11-10 04:13:00,42.5,31.6,30.03,SW,222,9.0,9.0,65,0.00,,OVC050,0.00,VWS V14.01,2013-11-10 09:13:00,
2013-11-10 04:15:00,42.3,31.8,30.06,SW,222,9.0,9.0,66,0.00,,SCT033,0.00,VWS V15.00,2013-11-10 09:15:00,
2013-11-10 04:18:00,42.5,31.6,30.03,SW,222,9.0,9.0,65,0.00,,OVC050,0.00,VWS V14.01,2013-11-10 09:18:00,
2013-11-10 04:23:00,42.5,31.6,30.03,SW,222,9.0,9.0,65,0.00,,OVC050,0.00,VWS V14.01,2013-11-10 09:23:00,
2013-11-10 04:28:00,42.5,32.0,30.03,SW,222,9.0,9.0,66,0.00,,OVC050,0.00,VWS V14.01,2013-11-10 09:28:00,
2013-11-10 04:30:00,42.2,31.3,30.06,SW,222,9.0,9.0,65,0.00,,SCT033,0.00,VWS V15.00,2013-11-10 09:30:00,
2013-11-10 04:33:00,42.4,31.9,30.04,SW,222,9.0,9.0,66,0.00,,OVC050,0.00,VWS V14.01,2013-11-10 09:33:00,
2013-11-10 04:38:00,42.4,31.9,30.04,SW,222,9.0,9.0,66,0.00,,OVC050,0.00,VWS V14.01,2013-11-10 09:38:00,
2013-11-10 04:43:00,42.4,31.9,30.05,SW,222,9.0,9.0,66,0.00,,OVC050,0.00,VWS V14.01,2013-11-10 09:43:00,
2013-11-10 04:45:00,42.1,31.2,30.07,SW,222,9.0,9.0,65,0.00,,SCT033,0.00,VWS V15.00,2013-11-10 09:45:00,
2013-11-10 04:48:00,42.3,31.8,30.05,SW,222,9.0,9.0,66,0.00,,OVC050,0.00,VWS V14.01,2013-11-10 09:48:00,
2013-11-10 04:53:00,42.3,31.8,30.04,SW,222,9.0,9.0,66,0.00,,OVC050,0.00,VWS V14.01,2013-11-10 09:53:00,
2013-11-10 04:58:00,42.3,31.8,30.05,SW,222,9.0,9.0,66,0.00,,OVC050,0.00,VWS V14.01,2013-11-10 09:58:00,
2013-11-10 05:00:00,42.2,31.7,30.07,SW,222,9.0,9.0,66,0.00,,SCT033,0.00,VWS V15.00,2013-11-10 10:00:00,
2013-11-10 05:03:00,42.3,31.8,30.05,SW,222,9.0,9.0,66,0.00,,OVC050,0.00,VWS V14.01,2013-11-10 10:03:00,
2013-11-10 05:09:00,42.3,31.8,30.05,SW,222,9.0,9.0,66,0.00,,OVC047,0.00,VWS V14.01,2013-11-10 10:09:00,
2013-11-10 05:14:00,42.3,31.8,30.06,SW,222,9.0,9.0,66,0.00,,OVC047,0.00,VWS V14.01,2013-11-10 10:14:00,
2013-11-10 05:15:00,42.2,31.7,30.09,SW,222,9.0,9.0,66,0.00,,SCT033,0.00,VWS V15.00,2013-11-10 10:15:00,
2013-11-10 05:19:00,42.2,31.7,30.06,SW,222,9.0,9.0,66,0.00,,OVC047,0.00,VWS V14.01,2013-11-10 10:19:00,
2013-11-10 05:24:00,42.2,31.3,30.06,SW,222,9.0,9.0,65,0.00,,OVC047,0.00,VWS V14.01,2013-11-10 10:24:00,
2013-11-10 05:29:00,42.2,31.3,30.06,SW,222,9.0,9.0,65,0.00,,OVC047,0.00,VWS V14.01,2013-11-10 10:29:00,
2013-11-10 05:30:00,42.2,31.3,30.09,SW,222,9.0,9.0,65,0.00,,SCT033,0.00,VWS V15.00,2013-11-10 10:30:00,
2013-11-10 05:34:00,42.2,31.3,30.06,SW,222,9.0,9.0,65,0.00,,OVC047,0.00,VWS V14.01,2013-11-10 10:34:00,
2013-11-10 05:39:00,42.2,31.3,30.07,SW,222,9.0,9.0,65,0.00,,OVC047,0.00,VWS V14.01,2013-11-10 10:39:00,
2013-11-10 05:40:00,42.2,31.3,30.07,SW,222,9.0,9.0,65,0.00,,OVC047,0.00,VWS V14.01,2013-11-10 10:40:00,
2013-11-10 05:45:00,42.2,31.3,30.07,SW,222,9.0,9.0,65,0.00,,OVC047,0.00,VWS V14.01,2013-11-10 10:45:00,
2013-11-10 05:50:00,42.2,31.3,30.07,SW,222,9.0,9.0,65,0.00,,OVC047,0.00,VWS V14.01,2013-11-10 10:50:00,
2013-11-10 05:55:00,42.3,31.4,30.07,SW,222,9.0,9.0,65,0.00,,OVC047,0.00,VWS V14.01,2013-11-10 10:55:00,
2013-11-10 06:00:00,42.2,31.7,30.08,SW,222,9.0,9.0,66,0.00,,OVC047,0.00,VWS V14.01,2013-11-10 11:00:00,
2013-11-10 06:05:00,42.1,31.6,30.08,SW,222,9.0,9.0,66,0.00,,OVC047,0.00,VWS V14.01,2013-11-10 11:05:00,
2013-11-10 06:10:00,42.1,31.6,30.09,SW,222,9.0,9.0,66,0.00,,OVC047,0.00,VWS V14.01,2013-11-10 11:10:00,
2013-11-10 06:15:00,42.2,31.3,30.09,SW,222,9.0,9.0,65,0.00,,OVC047,0.00,VWS V14.01,2013-11-10 11:15:00,
2013-11-10 06:20:00,42.2,31.3,30.09,SW,222,9.0,9.0,65,0.00,,OVC047,0.00,VWS V14.01,2013-11-10 11:20:00,
2013-11-10 06:25:00,42.2,31.3,30.09,SW,222,9.0,9.0,65,0.00,,OVC047,0.00,VWS V14.01,2013-11-10 11:25:00,
2013-11-10 06:30:00,42.2,31.3,30.09,SW,222,9.0,9.0,65,0.00,,OVC043,0.00,VWS V14.01,2013-11-10 11:30:00,
2013-11-10 06:35:00,42.2,31.3,30.10,SW,222,9.0,9.0,65,0.00,,OVC043,0.00,VWS V14.01,2013-11-10 11:35:00,
2013-11-10 06:40:00,42.1,30.8,30.10,SW,222,9.0,9.0,64,0.00,,OVC043,0.00,VWS V14.01,2013-11-10 11:40:00,
2013-11-10 06:45:00,42.1,30.8,30.11,SW,222,9.0,9.0,64,0.00,,OVC043,0.00,VWS V14.01,2013-11-10 11:45:00,
2013-11-10 06:50:00,42.2,30.9,30.10,SW,222,9.0,9.0,64,0.00,,OVC043,0.00,VWS V14.01,2013-11-10 11:50:00,
2013-11-10 06:55:00,42.1,30.8,30.11,SW,222,9.0,9.0,64,0.00,,OVC043,0.00,VWS V14.01,2013-11-10 11:55:00,
2013-11-10 07:00:00,42.1,30.8,30.11,SW,222,9.0,9.0,64,0.00,,OVC043,0.00,VWS V14.01,2013-11-10 12:00:00,
2013-11-10 07:06:00,42.2,30.9,30.12,SW,222,9.0,9.0,64,0.00,,OVC043,0.00,VWS V14.01,2013-11-10 12:06:00,
2013-11-10 07:11:00,42.2,31.3,30.12,SW,222,9.0,9.0,65,0.00,,OVC042,0.00,VWS V14.01,2013-11-10 12:11:00,
2013-11-10 07:15:00,42.4,32.2,30.16,SW,222,9.0,9.0,67,0.00,,SCT033,0.00,VWS V15.00,2013-11-10 12:15:00,
2013-11-10 07:16:00,42.2,31.3,30.12,SW,222,9.0,9.0,65,0.00,,OVC042,0.00,VWS V14.01,2013-11-10 12:16:00,
2013-11-10 07:21:00,42.2,31.7,30.12,SW,222,9.0,9.0,66,0.00,,OVC042,0.00,VWS V14.01,2013-11-10 12:21:00,
2013-11-10 07:26:00,42.3,31.8,30.12,SW,222,9.0,9.0,66,0.00,,OVC042,0.00,VWS V14.01,2013-11-10 12:26:00,
2013-11-10 07:30:00,42.4,32.6,30.17,SW,222,9.0,9.0,68,0.00,,SCT033,0.00,VWS V15.00,2013-11-10 12:30:00,
2013-11-10 07:31:00,42.3,31.8,30.12,SW,222,9.0,9.0,66,0.00,,OVC042,0.00,VWS V14.01,2013-11-10 12:31:00,
2013-11-10 07:36:00,42.3,32.1,30.13,SW,222,9.0,9.0,67,0.00,,OVC042,0.00,VWS V14.01,2013-11-10 12:36:00,
2013-11-10 07:41:00,42.3,32.1,30.13,SW,222,9.0,9.0,67,0.00,,OVC042,0.00,VWS V14.01,2013-11-10 12:41:00,
2013-11-10 07:45:00,42.4,32.6,30.17,SW,222,9.0,9.0,68,0.00,,SCT033,0.00,VWS V15.00,2013-11-10 12:45:00,
2013-11-10 07:46:00,42.3,32.1,30.13,SW,222,9.0,9.0,67,0.00,,OVC042,0.00,VWS V14.01,2013-11-10 12:46:00,
2013-11-10 07:51:00,42.4,32.2,30.14,SW,222,9.0,9.0,67,0.00,,OVC042,0.00,VWS V14.01,2013-11-10 12:51:00,
2013-11-10 07:56:00,42.4,32.2,30.14,SW,222,9.0,9.0,67,0.00,,OVC042,0.00,VWS V14.01,2013-11-10 12:56:00,
2013-11-10 08:00:00,42.5,32.7,30.18,SW,222,9.0,9.0,68,0.00,,SCT033,0.00,VWS V15.00,2013-11-10 13:00:00,
2013-11-10 08:01:00,42.4,32.2,30.15,SW,222,9.0,9.0,67,0.00,,OVC038,0.00,VWS V14.01,2013-11-10 13:01:00,
2013-11-10 08:06:00,42.4,33.7,30.15,SW,222,9.0,9.0,71,0.00,,OVC038,0.00,VWS V14.01,2013-11-10 13:06:00,
2013-11-10 08:11:00,42.4,32.2,30.16,SW,222,9.0,9.0,67,0.00,,OVC038,0.00,VWS V14.01,2013-11-10 13:11:00,
2013-11-10 08:15:00,42.5,32.7,30.19,SW,222,9.0,9.0,68,0.00,,SCT033,0.00,VWS V15.00,2013-11-10 13:15:00,
2013-11-10 08:16:00,42.4,32.2,30.16,SW,222,9.0,9.0,67,0.00,,OVC038,0.00,VWS V14.01,2013-11-10 13:16:00,
2013-11-10 08:21:00,42.4,32.6,30.16,SW,222,9.0,9.0,68,0.00,,OVC038,0.00,VWS V14.01,2013-11-10 13:21:00,
2013-11-10 08:26:00,42.4,32.6,30.17,SW,222,9.0,9.0,68,0.00,,OVC038,0.00,VWS V14.01,2013-11-10 13:26:00,
2013-11-10 08:30:00,42.5,32.7,30.20,SW,222,9.0,9.0,68,0.00,,SCT033,0.00,VWS V15.00,2013-11-10 13:30:00,
2013-11-10 08:31:00,42.4,32.6,30.17,SW,222,9.0,9.0,68,0.00,,OVC038,0.00,VWS V14.01,2013-11-10 13:31:00,
2013-11-10 08:36:00,42.4,32.6,30.17,SW,222,9.0,9.0,68,0.00,,OVC038,0.00,VWS V14.01,2013-11-10 13:36:00,
2013-11-10 08:41:00,42.3,32.5,30.17,SW,222,9.0,9.0,68,0.00,,OVC038,0.00,VWS V14.01,2013-11-10 13:41:00,
2013-11-10 08:45:00,42.7,32.9,30.21,SW,222,9.0,9.0,68,0.00,,SCT033,0.00,VWS V15.00,2013-11-10 13:45:00,
2013-11-10 08:46:00,42.4,32.6,30.17,SW,222,9.0,9.0,68,0.00,,OVC038,0.00,VWS V14.01,2013-11-10 13:46:00,
2013-11-10 08:51:00,42.4,32.2,30.17,SW,222,9.0,9.0,67,0.00,,OVC038,0.00,VWS V14.01,2013-11-10 13:51:00,
2013-11-10 08:56:00,42.5,32.7,30.18,SW,222,9.0,9.0,68,0.00,,OVC038,0.00,VWS V14.01,2013-11-10 13:56:00,
2013-11-10 09:00:00,42.8,33.3,30.22,SW,222,9.0,9.0,69,0.00,,SCT033,0.00,VWS V15.00,2013-11-10 14:00:00,
2013-11-10 09:02:00,42.5,32.7,30.18,SW,222,9.0,9.0,68,0.00,,BKN042,0.00,VWS V14.01,2013-11-10 14:02:00,
2013-11-10 09:07:00,42.5,32.7,30.18,SW,222,9.0,9.0,68,0.00,,BKN042,0.00,VWS V14.01,2013-11-10 14:07:00,
2013-11-10 09:12:00,42.5,32.7,30.19,SW,222,9.0,9.0,68,0.00,,BKN042,0.00,VWS V14.01,2013-11-10 14:12:00,
2013-11-10 09:15:00,43.0,33.2,30.23,SW,236,4.0,10.0,68,0.00,,SCT033,0.00,VWS V15.00,2013-11-10 14:15:00,
2013-11-10 09:17:00,42.5,32.7,30.19,SW,222,9.0,9.0,68,0.00,,BKN042,0.00,VWS V14.01,2013-11-10 14:17:00,
2013-11-10 09:22:00,42.5,32.7,30.19,SW,222,9.0,9.0,68,0.00,,BKN042,0.00,VWS V14.01,2013-11-10 14:22:00,
2013-11-10 09:27:00,42.5,32.7,30.20,SW,222,9.0,9.0,68,0.00,,BKN042,0.00,VWS V14.01,2013-11-10 14:27:00,
2013-11-10 09:30:00,43.1,33.3,30.23,WNW,301,2.0,5.0,68,0.00,,SCT033,0.00,VWS V15.00,2013-11-10 14:30:00,
2013-11-10 09:32:00,42.6,32.8,30.20,SW,222,9.0,9.0,68,0.00,,BKN042,0.00,VWS V14.01,2013-11-10 14:32:00,
2013-11-10 09:37:00,42.6,32.8,30.21,SW,222,9.0,9.0,68,0.00,,BKN042,0.00,VWS V14.01,2013-11-10 14:37:00,
2013-11-10 09:42:00,42.6,32.8,30.21,SW,222,9.0,9.0,68,0.00,,BKN042,0.00,VWS V14.01,2013-11-10 14:42:00,
2013-11-10 09:45:00,43.2,33.0,30.23,West,272,4.0,8.0,67,0.00,,SCT033,0.00,VWS V15.00,2013-11-10 14:45:00,
2013-11-10 09:47:00,42.7,32.9,30.22,SW,222,9.0,9.0,68,0.00,,BKN042,0.00,VWS V14.01,2013-11-10 14:47:00,
2013-11-10 09:52:00,42.7,32.9,30.21,SW,222,9.0,9.0,68,0.00,,BKN042,0.00,VWS V14.01,2013-11-10 14:52:00,
2013-11-10 09:57:00,42.8,33.0,30.22,SW,222,9.0,9.0,68,0.00,,BKN042,0.00,VWS V14.01,2013-11-10 14:57:00,
2013-11-10 10:00:00,43.5,33.3,30.24,West,259,2.0,6.0,67,0.00,,SCT033,0.00,VWS V15.00,2013-11-10 15:00:00,
2013-11-10 10:02:00,42.8,33.0,30.22,SW,222,9.0,9.0,68,0.00,,BKN040,0.00,VWS V14.01,2013-11-10 15:02:00,
2013-11-10 10:07:00,42.9,33.1,30.23,WNW,298,1.0,4.0,68,0.00,,BKN040,0.00,VWS V14.01,2013-11-10 15:07:00,
2013-11-10 10:12:00,42.9,33.1,30.23,West,267,6.0,6.0,68,0.00,,BKN040,0.00,VWS V14.01,2013-11-10 15:12:00,
2013-11-10 10:15:00,44.7,34.4,30.23,WNW,290,3.0,13.0,67,0.00,,SCT033,0.00,VWS V15.00,2013-11-10 15:15:00,
2013-11-10 10:17:00,43.0,33.2,30.23,WNW,297,1.0,10.0,68,0.00,,BKN040,0.00,VWS V14.01,2013-11-10 15:17:00,
2013-11-10 10:22:00,43.0,33.2,30.23,West,267,5.0,16.0,68,0.00,,BKN040,0.00,VWS V14.01,2013-11-10 15:22:00,
2013-11-10 10:27:00,43.0,33.2,30.23,WNW,284,2.0,8.0,68,0.00,,BKN040,0.00,VWS V14.01,2013-11-10 15:27:00,
2013-11-10 10:30:00,45.9,33.6,30.24,WNW,290,9.0,11.0,62,0.00,,SCT033,0.00,VWS V15.00,2013-11-10 15:30:00,
2013-11-10 10:32:00,43.1,33.3,30.23,WNW,294,3.0,10.0,68,0.00,,BKN040,0.00,VWS V14.01,2013-11-10 15:32:00,
2013-11-10 10:37:00,43.2,33.4,30.23,WNW,288,3.0,4.0,68,0.00,,BKN040,0.00,VWS V14.01,2013-11-10 15:37:00,
2013-11-10 10:42:00,43.2,33.0,30.23,West,265,14.0,19.0,67,0.00,,BKN040,0.00,VWS V14.01,2013-11-10 15:42:00,
2013-11-10 10:45:00,46.2,33.5,30.24,West,264,11.0,20.0,61,0.00,,SCT033,0.00,VWS V15.00,2013-11-10 15:45:00,
2013-11-10 10:47:00,43.3,33.1,30.23,WNW,290,7.0,15.0,67,0.00,,BKN040,0.00,VWS V14.01,2013-11-10 15:47:00,
2013-11-10 10:52:00,43.3,33.1,30.23,West,263,9.0,17.0,67,0.00,,BKN040,0.00,VWS V14.01,2013-11-10 15:52:00,
2013-11-10 10:57:00,43.4,33.2,30.24,NW,307,4.0,10.0,67,0.00,,BKN040,0.00,VWS V14.01,2013-11-10 15:57:00,
2013-11-10 11:00:00,46.5,32.5,30.24,West,280,9.0,16.0,58,0.00,,SCT033,0.00,VWS V15.00,2013-11-10 16:00:00,
2013-11-10 11:02:00,43.5,33.3,30.23,West,266,3.0,5.0,67,0.00,,BKN040,0.00,VWS V14.01,2013-11-10 16:02:00,
2013-11-10 11:07:00,43.7,33.1,30.23,NNW,341,3.0,9.0,66,0.00,,BKN040,0.00,VWS V14.01,2013-11-10 16:07:00,
2013-11-10 11:12:00,44.3,34.0,30.23,West,280,3.0,4.0,67,0.00,,BKN040,0.00,VWS V14.01,2013-11-10 16:12:00,
2013-11-10 11:15:00,46.9,32.5,30.25,West,268,10.0,18.0,57,0.00,,SCT033,0.00,VWS V15.00,2013-11-10 16:15:00,
2013-11-10 11:18:00,45.0,34.0,30.23,WSW,252,15.0,22.0,65,0.00,,BKN040,0.00,VWS V14.01,2013-11-10 16:18:00,
2013-11-10 11:23:00,45.3,33.5,30.23,West,279,12.0,15.0,63,0.00,,BKN042,0.00,VWS V14.01,2013-11-10 16:23:00,
2013-11-10 11:28:00,45.7,33.8,30.24,WSW,238,3.0,17.0,63,0.00,,BKN042,0.00,VWS V14.01,2013-11-10 16:28:00,
2013-11-10 11:30:00,47.0,32.6,30.25,WSW,254,15.0,15.0,57,0.00,,SCT033,0.00,VWS V15.00,2013-11-10 16:30:00,
2013-11-10 11:33:00,46.1,33.8,30.24,NW,324,4.0,18.0,62,0.00,,BKN042,0.00,VWS V14.01,2013-11-10 16:33:00,
2013-11-10 11:38:00,46.2,33.5,30.24,West,261,11.0,15.0,61,0.00,,BKN042,0.00,VWS V14.01,2013-11-10 16:38:00,
2013-11-10 11:43:00,46.1,33.0,30.24,WSW,256,5.0,11.0,60,0.00,,BKN042,0.00,VWS V14.01,2013-11-10 16:43:00,
2013-11-10 11:45:00,46.4,31.6,30.25,West,267,14.0,22.0,56,0.00,,SCT033,0.00,VWS V15.00,2013-11-10 16:45:00,
2013-11-10 11:48:00,46.3,33.6,30.24,West,278,11.0,11.0,61,0.00,,BKN042,0.00,VWS V14.01,2013-11-10 16:48:00,
2013-11-10 11:53:00,46.6,33.0,30.24,NW,309,17.0,17.0,59,0.00,,BKN042,0.00,VWS V14.01,2013-11-10 16:53:00,
2013-11-10 11:58:00,46.6,33.0,30.24,WNW,299,5.0,8.0,59,0.00,,BKN042,0.00,VWS V14.01,2013-11-10 16:58:00,
2013-11-10 12:00:00,46.1,32.2,30.25,West,259,5.0,10.0,58,0.00,,SCT033,0.00,VWS V15.00,2013-11-10 17:00:00,
2013-11-10 12:03:00,46.6,33.0,30.24,WNW,287,4.0,9.0,59,0.00,,BKN042,0.00,VWS V14.01,2013-11-10 17:03:00,
2013-11-10 12:08:00,46.8,33.2,30.24,NW,305,8.0,8.0,59,0.00,,BKN042,0.00,VWS V14.01,2013-11-10 17:08:00,
2013-11-10 12:13:00,46.8,32.4,30.25,West,260,17.0,17.0,57,0.00,,BKN042,0.00,VWS V14.01,2013-11-10 17:13:00,
2013-11-10 12:15:00,46.3,32.8,30.26,West,280,15.0,19.0,59,0.00,,SCT033,0.00,VWS V15.00,2013-11-10 17:15:00,
2013-11-10 12:18:00,46.9,32.0,30.25,West,279,12.0,16.0,56,0.00,,BKN042,0.00,VWS V14.01,2013-11-10 17:18:00,
2013-11-10 12:23:00,46.8,32.0,30.25,WNW,302,14.0,19.0,56,0.00,,SCT046,0.00,VWS V14.01,2013-11-10 17:23:00,
2013-11-10 12:28:00,47.1,32.7,30.25,WNW,295,8.0,14.0,57,0.00,,SCT046,0.00,VWS V14.01,2013-11-10 17:28:00,
2013-11-10 12:30:00,46.0,32.1,30.26,WNW,288,3.0,13.0,58,0.00,,SCT033,0.00,VWS V15.00,2013-11-10 17:30:00,
2013-11-10 12:33:00,46.9,32.0,30.25,West,273,6.0,15.0,56,0.00,,SCT046,0.00,VWS V14.01,2013-11-10 17:33:00,
2013-11-10 12:38:00,46.8,32.0,30.25,NW,308,3.0,8.0,56,0.00,,SCT046,0.00,VWS V14.01,2013-11-10 17:38:00,
2013-11-10 12:43:00,46.5,31.7,30.25,West,267,15.0,18.0,56,0.00,,SCT046,0.00,VWS V14.01,2013-11-10 17:43:00,
2013-11-10 12:45:00,45.8,32.3,30.26,NW,318,4.0,6.0,59,0.00,,SCT033,0.00,VWS V15.00,2013-11-10 17:45:00,
2013-11-10 12:48:00,46.1,31.7,30.25,NW,305,3.0,14.0,57,0.00,,SCT046,0.00,VWS V14.01,2013-11-10 17:48:00,
2013-11-10 12:53:00,46.0,32.1,30.25,West,259,2.0,7.0,58,0.00,,SCT046,0.00,VWS V14.01,2013-11-10 17:53:00,
2013-11-10 12:58:00,46.1,32.2,30.25,West,264,6.0,21.0,58,0.00,,SCT046,0.00,VWS V14.01,2013-11-10 17:58:00,
2013-11-10 13:00:00,46.2,31.8,30.26,WNW,291,4.0,6.0,57,0.00,,SCT033,0.00,VWS V15.00,2013-11-10 18:00:00,
2013-11-10 13:03:00,46.1,32.2,30.25,WSW,247,10.0,12.0,58,0.00,,SCT046,0.00,VWS V14.01,2013-11-10 18:03:00,
2013-11-10 13:08:00,46.2,32.2,30.26,NW,314,4.0,17.0,58,0.00,,BKN042,0.00,VWS V14.01,2013-11-10 18:08:00,
2013-11-10 13:13:00,46.3,32.8,30.26,West,266,20.0,20.0,59,0.00,,BKN042,0.00,VWS V14.01,2013-11-10 18:13:00,
2013-11-10 13:15:00,46.3,31.9,30.27,WSW,257,2.0,4.0,57,0.00,,SCT033,0.00,VWS V15.00,2013-11-10 18:15:00,
2013-11-10 13:19:00,46.0,32.1,30.26,NW,322,8.0,17.0,58,0.00,,BKN042,0.00,VWS V14.01,2013-11-10 18:19:00,
2013-11-10 13:24:00,45.8,31.5,30.26,West,261,4.0,17.0,57,0.00,,BKN042,0.00,VWS V14.01,2013-11-10 18:24:00,
2013-11-10 13:29:00,45.9,32.0,30.26,NNW,328,10.0,11.0,58,0.00,,BKN042,0.00,VWS V14.01,2013-11-10 18:29:00,
2013-11-10 13:30:00,46.4,32.4,30.27,WNW,293,4.0,6.0,58,0.00,,SCT033,0.00,VWS V15.00,2013-11-10 18:30:00,
2013-11-10 13:34:00,46.1,32.6,30.26,NNW,336,19.0,19.0,59,0.00,,BKN042,0.00,VWS V14.01,2013-11-10 18:34:00,
2013-11-10 13:39:00,46.0,32.1,30.26,WNW,292,11.0,11.0,58,0.00,,BKN042,0.00,VWS V14.01,2013-11-10 18:39:00,
2013-11-10 13:44:00,45.8,32.3,30.26,WNW,284,4.0,10.0,59,0.00,,BKN042,0.00,VWS V14.01,2013-11-10 18:44:00,
2013-11-10 13:45:00,46.5,32.5,30.27,West,259,2.0,12.0,58,0.00,,SCT033,0.00,VWS V15.00,2013-11-10 18:45:00,
2013-11-10 13:49:00,45.8,32.7,30.26,NW,314,5.0,7.0,60,0.00,,BKN042,0.00,VWS V14.01,2013-11-10 18:49:00,
2013-11-10 13:54:00,45.9,32.4,30.26,WNW,291,0.0,3.0,59,0.00,,BKN042,0.00,VWS V14.01,2013-11-10 18:54:00,
2013-11-10 13:59:00,46.1,32.2,30.26,West,262,2.0,8.0,58,0.00,,BKN042,0.00,VWS V14.01,2013-11-10 18:59:00,
2013-11-10 14:00:00,46.3,32.3,30.27,NW,319,2.0,10.0,58,0.00,,SCT033,0.00,VWS V15.00,2013-11-10 19:00:00,
2013-11-10 14:04:00,46.4,32.0,30.26,WNW,282,14.0,18.0,57,0.00,,BKN042,0.00,VWS V14.01,2013-11-10 19:04:00,
2013-11-10 14:09:00,46.1,31.7,30.26,West,269,3.0,12.0,57,0.00,,BKN042,0.00,VWS V14.01,2013-11-10 19:09:00,
2013-11-10 14:14:00,46.2,31.8,30.27,WNW,296,2.0,8.0,57,0.00,,BKN042,0.00,VWS V14.01,2013-11-10 19:14:00,
2013-11-10 14:15:00,45.5,31.6,30.27,West,274,2.0,5.0,58,0.00,,SCT033,0.00,VWS V15.00,2013-11-10 19:15:00,
2013-11-10 14:19:00,46.4,32.4,30.27,West,278,7.0,10.0,58,0.00,,BKN042,0.00,VWS V14.01,2013-11-10 19:19:00,
2013-11-10 14:24:00,46.4,31.6,30.27,NW,317,9.0,14.0,56,0.00,,BKN042,0.00,VWS V14.01,2013-11-10 19:24:00,
2013-11-10 14:29:00,46.4,32.0,30.26,NW,309,2.0,5.0,57,0.00,,BKN046,0.00,VWS V14.01,2013-11-10 19:29:00,
2013-11-10 14:30:00,44.8,31.8,30.28,WNW,299,1.0,4.0,60,0.00,,SCT033,0.00,VWS V15.00,2013-11-10 19:30:00,
2013-11-10 14:34:00,46.5,32.1,30.26,WNW,294,13.0,18.0,57,0.00,,BKN046,0.00,VWS V14.01,2013-11-10 19:34:00,
2013-11-10 14:39:00,46.4,32.0,30.27,WNW,303,4.0,12.0,57,0.00,,BKN046,0.00,VWS V14.01,2013-11-10 19:39:00,
2013-11-10 14:44:00,46.5,32.5,30.27,WNW,303,9.0,9.0,58,0.00,,BKN046,0.00,VWS V14.01,2013-11-10 19:44:00,
2013-11-10 14:45:00,45.0,32.0,30.28,West,266,3.0,11.0,60,0.00,,SCT033,0.00,VWS V15.00,2013-11-10 19:45:00,
2013-11-10 14:49:00,46.4,32.4,30.27,WNW,299,7.0,7.0,58,0.00,,BKN046,0.00,VWS V14.01,2013-11-10 19:49:00,
2013-11-10 14:54:00,46.4,32.4,30.27,NW,324,5.0,8.0,58,0.00,,BKN046,0.00,VWS V14.01,2013-11-10 19:54:00,
2013-11-10 15:00:00,46.3,32.3,30.27,NW,317,3.0,12.0,58,0.00,,BKN046,0.00,VWS V14.01,2013-11-10 20:00:00,
2013-11-10 15:05:00,46.0,32.1,30.27,WNW,302,4.0,9.0,58,0.00,,BKN046,0.00,VWS V14.01,2013-11-10 20:05:00,
2013-11-10 15:10:00,45.7,31.8,30.27,West,280,1.0,6.0,58,0.00,,BKN250,0.00,VWS V14.01,2013-11-10 20:10:00,
2013-11-10 15:15:00,45.5,31.6,30.27,WNW,295,2.0,5.0,58,0.00,,BKN250,0.00,VWS V14.01,2013-11-10 20:15:00,
2013-11-10 15:20:00,45.2,31.7,30.27,NNW,334,1.0,4.0,59,0.00,,BKN250,0.00,VWS V14.01,2013-11-10 20:20:00,
2013-11-10 15:25:00,45.0,31.5,30.27,WNW,293,1.0,3.0,59,0.00,,BKN250,0.00,VWS V14.01,2013-11-10 20:25:00,
2013-11-10 15:30:00,44.8,31.8,30.28,WNW,299,1.0,4.0,60,0.00,,BKN250,0.00,VWS V14.01,2013-11-10 20:30:00,
2013-11-10 15:35:00,44.7,31.7,30.27,WNW,303,0.0,2.0,60,0.00,,BKN250,0.00,VWS V14.01,2013-11-10 20:35:00,
2013-11-10 15:40:00,44.8,32.2,30.28,NNW,346,0.0,3.0,61,0.00,,BKN250,0.00,VWS V14.01,2013-11-10 20:40:00,
2013-11-10 15:45:00,45.0,32.0,30.28,West,259,5.0,8.0,60,0.00,,BKN250,0.00,VWS V14.01,2013-11-10 20:45:00,
2013-11-10 15:50:00,45.0,32.0,30.28,NW,304,3.0,7.0,60,0.00,,BKN250,0.00,VWS V14.01,2013-11-10 20:50:00,
2013-11-10 15:55:00,44.8,31.8,30.28,West,263,10.0,10.0,60,0.00,,BKN250,0.00,VWS V14.01,2013-11-10 20:55:00,
2013-11-10 16:00:00,44.7,31.7,30.28,West,265,2.0,5.0,60,0.00,,SCT039,0.00,VWS V14.01,2013-11-10 21:00:00,
2013-11-10 16:05:00,44.8,31.8,30.28,WNW,282,9.0,10.0,60,0.00,,SCT039,0.00,VWS V14.01,2013-11-10 21:05:00,
2013-11-10 16:10:00,44.7,32.1,30.28,WSW,242,7.0,8.0,61,0.00,,SCT039,0.00,VWS V14.01,2013-11-10 21:10:00,
2013-11-10 16:15:00,44.6,32.0,30.29,WSW,257,2.0,6.0,61,0.00,,SCT039,0.00,VWS V14.01,2013-11-10 21:15:00,
2013-11-10 16:20:00,44.5,31.9,30.29,WSW,247,12.0,12.0,61,0.00,,SCT039,0.00,VWS V14.01,2013-11-10 21:20:00,
2013-11-10 16:26:00,44.4,31.8,30.29,West,270,1.0,6.0,61,0.00,,SCT039,0.00,VWS V14.01,2013-11-10 21:26:00,
2013-11-10 16:30:00,41.9,31.0,30.30,West,274,5.0,5.0,65,0.00,,SCT033,0.00,VWS V15.00,2013-11-10 21:30:00,
2013-11-10 16:31:00,44.3,32.1,30.29,WSW,247,6.0,14.0,62,0.00,,SCT039,0.00,VWS V14.01,2013-11-10 21:31:00,
2013-11-10 16:36:00,44.2,32.0,30.29,WNW,295,3.0,7.0,62,0.00,,SCT039,0.00,VWS V14.01,2013-11-10 21:36:00,
2013-11-10 16:41:00,44.1,31.9,30.29,WSW,255,2.0,6.0,62,0.00,,SCT039,0.00,VWS V14.01,2013-11-10 21:41:00,
2013-11-10 16:45:00,41.2,30.7,30.30,West,274,5.0,5.0,66,0.00,,SCT033,0.00,VWS V15.00,2013-11-10 21:45:00,
2013-11-10 16:46:00,43.9,31.7,30.30,West,272,3.0,8.0,62,0.00,,SCT039,0.00,VWS V14.01,2013-11-10 21:46:00,
2013-11-10 16:51:00,43.7,31.5,30.30,WSW,258,6.0,8.0,62,0.00,,SCT039,0.00,VWS V14.01,2013-11-10 21:51:00,
2013-11-10 16:56:00,43.5,31.4,30.29,WSW,255,3.0,4.0,62,0.00,,SCT039,0.00,VWS V14.01,2013-11-10 21:56:00,
2013-11-10 17:00:00,40.7,30.2,30.29,West,274,5.0,5.0,66,0.00,,SCT033,0.00,VWS V15.00,2013-11-10 22:00:00,
2013-11-10 17:01:00,43.3,31.6,30.30,West,264,11.0,14.0,63,0.00,,SCT039,0.00,VWS V14.01,2013-11-10 22:01:00,
2013-11-10 17:06:00,42.9,31.2,30.30,West,276,3.0,8.0,63,0.00,,SCT039,0.00,VWS V14.01,2013-11-10 22:06:00,
2013-11-10 17:11:00,42.8,31.5,30.30,West,274,5.0,6.0,64,0.00,,SCT039,0.00,VWS V14.01,2013-11-10 22:11:00,
2013-11-10 17:15:00,39.7,29.7,30.28,West,274,5.0,5.0,67,0.00,,SCT033,0.00,VWS V15.00,2013-11-10 22:15:00,
2013-11-10 17:16:00,42.5,31.2,30.30,West,274,5.0,5.0,64,0.00,,SCT039,0.00,VWS V14.01,2013-11-10 22:16:00,
2013-11-10 17:21:00,42.3,31.4,30.30,West,274,5.0,5.0,65,0.00,,FEW039,0.00,VWS V14.01,2013-11-10 22:21:00,
2013-11-10 17:26:00,42.0,31.1,30.30,West,274,5.0,5.0,65,0.00,,FEW039,0.00,VWS V14.01,2013-11-10 22:26:00,
2013-11-10 17:30:00,38.7,29.1,30.29,West,274,5.0,5.0,68,0.00,,SCT033,0.00,VWS V15.00,2013-11-10 22:30:00,
2013-11-10 17:31:00,41.9,31.0,30.30,West,274,5.0,5.0,65,0.00,,FEW039,0.00,VWS V14.01,2013-11-10 22:31:00,
2013-11-10 17:36:00,41.6,30.7,30.30,West,274,5.0,5.0,65,0.00,,FEW039,0.00,VWS V14.01,2013-11-10 22:36:00,
2013-11-10 17:41:00,41.4,30.9,30.30,West,274,5.0,5.0,66,0.00,,FEW039,0.00,VWS V14.01,2013-11-10 22:41:00,
2013-11-10 17:45:00,37.4,28.2,30.30,West,274,5.0,5.0,69,0.00,,SCT033,0.00,VWS V15.00,2013-11-10 22:45:00,
2013-11-10 17:46:00,41.2,30.7,30.30,West,274,5.0,5.0,66,0.00,,FEW039,0.00,VWS V14.01,2013-11-10 22:46:00,
2013-11-10 17:51:00,41.1,30.6,30.30,West,274,5.0,5.0,66,0.00,,FEW039,0.00,VWS V14.01,2013-11-10 22:51:00,
2013-11-10 17:57:00,40.9,30.4,30.29,West,274,5.0,5.0,66,0.00,,FEW039,0.00,VWS V14.01,2013-11-10 22:57:00,
2013-11-10 18:00:00,36.3,27.8,30.29,West,274,5.0,5.0,71,0.00,,SCT033,0.00,VWS V15.00,2013-11-10 23:00:00,
2013-11-10 18:02:00,40.6,30.1,30.29,West,274,5.0,5.0,66,0.00,,SCT250,0.00,VWS V14.01,2013-11-10 23:02:00,
2013-11-10 18:07:00,40.3,30.2,30.28,West,274,5.0,5.0,67,0.00,,SCT250,0.00,VWS V14.01,2013-11-10 23:07:00,
2013-11-10 18:12:00,39.9,29.9,30.28,West,274,5.0,5.0,67,0.00,,SCT250,0.00,VWS V14.01,2013-11-10 23:12:00,
2013-11-10 18:15:00,35.5,27.4,30.29,West,274,5.0,5.0,72,0.00,,SCT033,0.00,VWS V15.00,2013-11-10 23:15:00,
2013-11-10 18:17:00,39.6,29.6,30.29,West,274,5.0,5.0,67,0.00,,SCT250,0.00,VWS V14.01,2013-11-10 23:17:00,
2013-11-10 18:22:00,39.3,29.3,30.28,West,274,5.0,5.0,67,0.00,,SCT250,0.00,VWS V14.01,2013-11-10 23:22:00,
2013-11-10 18:27:00,38.9,29.2,30.29,West,274,5.0,5.0,68,0.00,,SCT250,0.00,VWS V14.01,2013-11-10 23:27:00,
2013-11-10 18:30:00,34.4,26.7,30.30,West,274,5.0,5.0,73,0.00,,SCT033,0.00,VWS V15.00,2013-11-10 23:30:00,
2013-11-10 18:32:00,38.6,29.0,30.29,West,274,5.0,5.0,68,0.00,,SCT250,0.00,VWS V14.01,2013-11-10 23:32:00,
2013-11-10 18:37:00,38.2,28.6,30.29,West,274,5.0,5.0,68,0.00,,SCT250,0.00,VWS V14.01,2013-11-10 23:37:00,
2013-11-10 18:42:00,37.8,28.6,30.30,West,274,5.0,5.0,69,0.00,,SCT250,0.00,VWS V14.01,2013-11-10 23:42:00,
2013-11-10 18:45:00,33.7,26.3,30.29,West,274,5.0,5.0,74,0.00,,SCT033,0.00,VWS V15.00,2013-11-10 23:45:00,
2013-11-10 18:47:00,37.2,28.0,30.30,West,274,5.0,5.0,69,0.00,,SCT250,0.00,VWS V14.01,2013-11-10 23:47:00,
2013-11-10 18:52:00,36.9,28.4,30.30,West,274,5.0,5.0,71,0.00,,SCT250,0.00,VWS V14.01,2013-11-10 23:52:00,
2013-11-10 18:57:00,36.5,28.0,30.29,West,274,5.0,5.0,71,0.00,,SCT250,0.00,VWS V14.01,2013-11-10 23:57:00,
2013-11-10 19:00:00,33.1,26.0,30.29,West,274,5.0,5.0,75,0.00,,SCT033,0.00,VWS V15.00,2013-11-11 00:00:00,
2013-11-10 19:02:00,36.2,28.1,30.29,West,274,5.0,5.0,72,0.00,,CLR,0.00,VWS V14.01,2013-11-11 00:02:00,
2013-11-10 19:07:00,35.8,27.7,30.29,West,274,5.0,5.0,72,0.00,,CLR,0.00,VWS V14.01,2013-11-11 00:07:00,
2013-11-10 19:12:00,35.7,27.6,30.29,West,274,5.0,5.0,72,0.00,,CLR,0.00,VWS V14.01,2013-11-11 00:12:00,
2013-11-10 19:15:00,32.8,26.7,30.28,West,274,5.0,5.0,78,0.00,,SCT033,0.00,VWS V15.00,2013-11-11 00:15:00,
2013-11-10 19:17:00,35.3,27.2,30.30,West,274,5.0,5.0,72,0.00,,CLR,0.00,VWS V14.01,2013-11-11 00:17:00,
2013-11-10 19:22:00,34.9,26.8,30.30,West,274,5.0,5.0,72,0.00,,CLR,0.00,VWS V14.01,2013-11-11 00:22:00,
2013-11-10 19:28:00,34.6,26.9,30.30,West,274,5.0,5.0,73,0.00,,CLR,0.00,VWS V14.01,2013-11-11 00:28:00,
2013-11-10 19:30:00,32.4,26.6,30.28,West,274,5.0,5.0,79,0.00,,SCT033,0.00,VWS V15.00,2013-11-11 00:30:00,
2013-11-10 19:33:00,34.3,26.6,30.29,West,274,5.0,5.0,73,0.00,,CLR,0.00,VWS V14.01,2013-11-11 00:33:00,
2013-11-10 19:38:00,34.0,26.6,30.29,West,274,5.0,5.0,74,0.00,,CLR,0.00,VWS V14.01,2013-11-11 00:38:00,
2013-11-10 19:43:00,33.8,26.4,30.29,West,274,5.0,5.0,74,0.00,,CLR,0.00,VWS V14.01,2013-11-11 00:43:00,
2013-11-10 19:45:00,32.1,26.6,30.28,West,274,5.0,5.0,80,0.00,,SCT033,0.00,VWS V15.00,2013-11-11 00:45:00,
2013-11-10 19:48:00,33.6,26.2,30.29,West,274,5.0,5.0,74,0.00,,CLR,0.00,VWS V14.01,2013-11-11 00:48:00,
2013-11-10 19:53:00,33.4,26.3,30.29,West,274,5.0,5.0,75,0.00,,CLR,0.00,VWS V14.01,2013-11-11 00:53:00,
2013-11-10 19:58:00,33.2,26.1,30.29,West,274,5.0,5.0,75,0.00,,CLR,0.00,VWS V14.01,2013-11-11 00:58:00,
2013-11-10 20:00:00,31.9,27.0,30.27,West,274,5.0,5.0,82,0.00,,SCT033,0.00,VWS V15.00,2013-11-11 01:00:00,
2013-11-10 20:03:00,33.0,26.3,30.28,West,274,5.0,5.0,76,0.00,,CLR,0.00,VWS V14.01,2013-11-11 01:03:00,
2013-11-10 20:08:00,32.9,26.5,30.28,West,274,5.0,5.0,77,0.00,,CLR,0.00,VWS V14.01,2013-11-11 01:08:00,
2013-11-10 20:13:00,32.8,26.7,30.28,West,274,5.0,5.0,78,0.00,,FEW120,0.00,VWS V14.01,2013-11-11 01:13:00,
2013-11-10 20:15:00,32.2,27.6,30.27,West,274,5.0,5.0,83,0.00,,SCT033,0.00,VWS V15.00,2013-11-11 01:15:00,
2013-11-10 20:18:00,32.7,26.9,30.28,West,274,5.0,5.0,79,0.00,,FEW120,0.00,VWS V14.01,2013-11-11 01:18:00,
2013-11-10 20:23:00,32.6,26.8,30.28,West,274,5.0,5.0,79,0.00,,FEW120,0.00,VWS V14.01,2013-11-11 01:23:00,
2013-11-10 20:28:00,32.5,26.7,30.28,West,274,5.0,5.0,79,0.00,,FEW120,0.00,VWS V14.01,2013-11-11 01:28:00,
2013-11-10 20:30:00,32.5,28.2,30.27,West,274,5.0,5.0,84,0.00,,SCT033,0.00,VWS V15.00,2013-11-11 01:30:00,
2013-11-10 20:33:00,32.4,26.9,30.28,West,274,5.0,5.0,80,0.00,,FEW120,0.00,VWS V14.01,2013-11-11 01:33:00,
2013-11-10 20:38:00,32.2,26.7,30.29,West,274,5.0,5.0,80,0.00,,FEW120,0.00,VWS V14.01,2013-11-11 01:38:00,
2013-11-10 20:43:00,32.2,26.7,30.29,West,274,5.0,5.0,80,0.00,,FEW120,0.00,VWS V14.01,2013-11-11 01:43:00,
2013-11-10 20:45:00,33.2,29.5,30.26,West,274,5.0,5.0,86,0.00,,SCT033,0.00,VWS V15.00,2013-11-11 01:45:00,
2013-11-10 20:48:00,32.1,26.6,30.29,West,274,5.0,5.0,80,0.00,,FEW120,0.00,VWS V14.01,2013-11-11 01:48:00,
2013-11-10 20:54:00,32.0,26.8,30.28,West,274,5.0,5.0,81,0.00,,FEW120,0.00,VWS V14.01,2013-11-11 01:54:00,
2013-11-10 20:59:00,32.0,26.8,30.28,West,274,5.0,5.0,81,0.00,,SCT150,0.00,VWS V14.01,2013-11-11 01:59:00,
2013-11-10 21:00:00,33.9,30.2,30.26,West,274,5.0,5.0,86,0.00,,SCT033,0.00,VWS V15.00,2013-11-11 02:00:00,
2013-11-10 21:04:00,32.0,27.1,30.27,West,274,5.0,5.0,82,0.00,,SCT150,0.00,VWS V14.01,2013-11-11 02:04:00,
2013-11-10 21:09:00,32.1,27.5,30.27,West,274,5.0,5.0,83,0.00,,SCT150,0.00,VWS V14.01,2013-11-11 02:09:00,
2013-11-10 21:14:00,32.1,27.5,30.27,West,274,5.0,5.0,83,0.00,,SCT150,0.00,VWS V14.01,2013-11-11 02:14:00,
2013-11-10 21:15:00,34.7,31.2,30.26,West,274,5.0,5.0,87,0.00,,SCT033,0.00,VWS V15.00,2013-11-11 02:15:00,
2013-11-10 21:19:00,32.2,27.9,30.27,West,274,5.0,5.0,84,0.00,,SCT150,0.00,VWS V14.01,2013-11-11 02:19:00,
2013-11-10 21:24:00,32.4,28.1,30.27,West,274,5.0,5.0,84,0.00,,SCT150,0.00,VWS V14.01,2013-11-11 02:24:00,
2013-11-10 21:29:00,32.4,28.1,30.27,West,274,5.0,5.0,84,0.00,,SCT150,0.00,VWS V14.01,2013-11-11 02:29:00,
2013-11-10 21:30:00,35.5,31.7,30.26,West,274,5.0,5.0,86,0.00,,SCT033,0.00,VWS V15.00,2013-11-11 02:30:00,
2013-11-10 21:34:00,32.6,28.6,30.27,West,274,5.0,5.0,85,0.00,,SCT150,0.00,VWS V14.01,2013-11-11 02:34:00,
2013-11-10 21:39:00,32.9,28.9,30.26,West,274,5.0,5.0,85,0.00,,SCT150,0.00,VWS V14.01,2013-11-11 02:39:00,
2013-11-10 21:44:00,33.1,29.1,30.26,West,274,5.0,5.0,85,0.00,,SCT150,0.00,VWS V14.01,2013-11-11 02:44:00,
2013-11-10 21:45:00,35.9,32.1,30.26,West,274,5.0,5.0,86,0.00,,SCT033,0.00,VWS V15.00,2013-11-11 02:45:00,
2013-11-10 21:49:00,33.4,29.7,30.26,West,274,5.0,5.0,86,0.00,,SCT150,0.00,VWS V14.01,2013-11-11 02:49:00,
2013-11-10 21:54:00,33.7,30.0,30.26,West,274,5.0,5.0,86,0.00,,SCT150,0.00,VWS V14.01,2013-11-11 02:54:00,
2013-11-10 22:00:00,33.9,30.2,30.26,West,274,5.0,5.0,86,0.00,,OVC130,0.00,VWS V14.01,2013-11-11 03:00:00,
2013-11-10 22:05:00,34.2,30.5,30.26,West,274,5.0,5.0,86,0.00,,OVC130,0.00,VWS V14.01,2013-11-11 03:05:00,
2013-11-10 22:10:00,34.4,30.6,30.26,West,274,5.0,5.0,86,0.00,,OVC130,0.00,VWS V14.01,2013-11-11 03:10:00,
2013-11-10 22:15:00,34.7,31.2,30.26,West,274,5.0,5.0,87,0.00,,OVC130,0.00,VWS V14.01,2013-11-11 03:15:00,
2013-11-10 22:20:00,35.0,31.2,30.26,West,274,5.0,5.0,86,0.00,,OVC130,0.00,VWS V14.01,2013-11-11 03:20:00,
2013-11-10 22:25:00,35.3,31.8,30.26,West,274,5.0,5.0,87,0.00,,OVC130,0.00,VWS V14.01,2013-11-11 03:25:00,
2013-11-10 22:30:00,35.5,31.7,30.26,West,274,5.0,5.0,86,0.00,,OVC130,0.00,VWS V14.01,2013-11-11 03:30:00,
2013-11-10 22:35:00,35.8,32.0,30.26,West,274,5.0,5.0,86,0.00,,OVC130,0.00,VWS V14.01,2013-11-11 03:35:00,
2013-11-10 22:40:00,35.8,32.0,30.26,West,274,5.0,5.0,86,0.00,,OVC130,0.00,VWS V14.01,2013-11-11 03:40:00,
2013-11-10 22:45:00,35.9,32.1,30.26,West,274,5.0,5.0,86,0.00,,OVC130,0.00,VWS V14.01,2013-11-11 03:45:00,
2013-11-10 22:50:00,36.2,32.4,30.26,West,274,5.0,5.0,86,0.00,,OVC130,0.00,VWS V14.01,2013-11-11 03:50:00,
2013-11-10 22:55:00,36.4,32.6,30.26,West,274,5.0,5.0,86,0.00,,OVC130,0.00,VWS V14.01,2013-11-11 03:55:00,
2013-11-10 23:00:00,36.6,32.8,30.25,West,274,5.0,5.0,86,0.00,,OVC120,0.00,VWS V14.01,2013-11-11 04:00:00,
2013-11-10 23:05:00,36.7,32.6,30.25,West,274,5.0,5.0,85,0.00,,OVC120,0.00,VWS V14.01,2013-11-11 04:05:00,
2013-11-10 23:10:00,36.9,32.8,30.24,West,274,5.0,5.0,85,0.00,,OVC120,0.00,VWS V14.01,2013-11-11 04:10:00,
2013-11-10 23:15:00,38.8,33.5,30.22,West,274,5.0,5.0,81,0.00,,SCT033,0.00,VWS V15.00,2013-11-11 04:15:00,
2013-11-10 23:16:00,37.1,33.0,30.24,West,274,5.0,5.0,85,0.00,,OVC120,0.00,VWS V14.01,2013-11-11 04:16:00,
2013-11-10 23:21:00,37.3,32.9,30.24,West,274,5.0,5.0,84,0.00,,OVC120,0.00,VWS V14.01,2013-11-11 04:21:00,
2013-11-10 23:26:00,37.4,33.0,30.24,West,274,5.0,5.0,84,0.00,,OVC120,0.00,VWS V14.01,2013-11-11 04:26:00,
2013-11-10 23:30:00,39.2,33.6,30.21,West,274,5.0,5.0,80,0.00,,SCT033,0.00,VWS V15.00,2013-11-11 04:30:00,
2013-11-10 23:31:00,37.6,32.9,30.24,West,274,5.0,5.0,83,0.00,,OVC120,0.00,VWS V14.01,2013-11-11 04:31:00,
2013-11-10 23:36:00,37.8,33.1,30.24,West,274,5.0,5.0,83,0.00,,OVC120,0.00,VWS V14.01,2013-11-11 04:36:00,
2013-11-10 23:41:00,37.9,33.2,30.23,West,274,5.0,5.0,83,0.00,,OVC120,0.00,VWS V14.01,2013-11-11 04:41:00,
2013-11-10 23:45:00,39.6,34.0,30.21,West,274,5.0,5.0,80,0.00,,SCT033,0.00,VWS V15.00,2013-11-11 04:45:00,
2013-11-10 23:46:00,38.1,33.1,30.23,West,274,5.0,5.0,82,0.00,,OVC120,0.00,VWS V14.01,2013-11-11 04:46:00,
2013-11-10 23:51:00,38.2,33.2,30.23,West,274,5.0,5.0,82,0.00,,OVC120,0.00,VWS V14.01,2013-11-11 04:51:00,
2013-11-10 23:56:00,38.4,33.4,30.23,West,274,5.0,5.0,82,0.00,,OVC120,0.00,VWS V14.01,2013-11-11 04:56:00,